Time;durP1;ratioP1;P1;durP2;ratioP2;P2;SDS_P1;SDS_P2;PMS_P1;PMS_P2;Temp;Humidity;BMP_temperature;BMP_pressure;BME280_temperature;BME280_humidity;BME280_pressure;Samples;Min_cycle;Max_cycle;Signal;HPM_P1;HPM_P2
2022/01/13 00:00:37;;;;;;;;;;;-3.10;99.90;;;;;;5039524;28;19937;-73
2022/01/13 00:03:08;;;;;;;;;;;-3.10;99.90;;;;;;4988493;28;19949;-73
2022/01/13 00:05:40;;;;;;;;;;;-3.10;99.90;;;;;;5053197;28;19958;-73
2022/01/13 00:08:07;;;;;;;;;;;-3.10;99.90;;;;;;5055478;28;19932;-73
2022/01/13 00:10:38;;;;;;;;;;;-3.10;99.90;;;;;;5058553;28;20308;-73
2022/01/13 00:13:20;;;;;;;;;;;-3.10;99.90;;;;;;5058941;28;19926;-73
2022/01/13 00:18:49;;;;;;;;;;;-3.20;99.90;;;;;;5026556;28;20383;-74
2022/01/13 00:21:35;;;;;;;;;;;-3.20;99.90;;;;;;5062863;28;19924;-74
2022/01/13 00:24:11;;;;;;;;;;;-3.20;99.90;;;;;;5027613;28;19950;-74
2022/01/13 00:26:46;;;;;;;;;;;-3.20;99.90;;;;;;5021430;28;20032;-73
2022/01/13 00:29:24;;;;;;;;;;;-3.30;99.90;;;;;;5061664;28;19950;-74
2022/01/13 00:31:55;;;;;;;;;;;-3.30;99.90;;;;;;5022745;28;19964;-73
2022/01/13 00:34:27;;;;;;;;;;;-3.30;99.90;;;;;;5006109;28;19953;-73
2022/01/13 00:36:59;;;;;;;;;;;-3.40;99.90;;;;;;4993194;28;19932;-73
2022/01/13 00:39:26;;;;;;;;;;;-3.40;99.90;;;;;;5011590;28;20399;-74
2022/01/13 00:41:52;;;;;;;;;;;-3.40;99.90;;;;;;4977398;28;19925;-74
2022/01/13 00:44:24;;;;;;;;;;;-3.50;99.90;;;;;;4977703;28;19933;-74
2022/01/13 00:46:58;;;;;;;;;;;-3.40;99.90;;;;;;4993720;28;20024;-75
2022/01/13 00:49:30;;;;;;;;;;;-3.50;99.90;;;;;;4994248;28;19931;-74
2022/01/13 00:51:56;;;;;;;;;;;-3.50;99.90;;;;;;5010994;28;19926;-74
2022/01/13 00:54:24;;;;;;;;;;;-3.60;99.90;;;;;;4992725;28;20350;-74
2022/01/13 00:56:51;;;;;;;;;;;-3.60;99.90;;;;;;4993396;28;19957;-74
2022/01/13 00:59:23;;;;;;;;;;;-3.60;99.90;;;;;;5010838;28;19961;-74
2022/01/13 01:01:55;;;;;;;;;;;-3.70;99.90;;;;;;4994115;28;20303;-74
2022/01/13 01:04:23;;;;;;;;;;;-3.70;99.90;;;;;;4993298;28;20380;-74
2022/01/13 01:06:51;;;;;;;;;;;-3.70;99.90;;;;;;4993221;28;19932;-74
2022/01/13 01:09:29;;;;;;;;;;;-3.70;99.90;;;;;;5010576;28;20441;-74
2022/01/13 01:12:00;;;;;;;;;;;-3.70;99.90;;;;;;4994059;28;20047;-74
2022/01/13 01:14:31;;;;;;;;;;;-3.70;99.90;;;;;;4992889;28;20361;-73
2022/01/13 01:17:03;;;;;;;;;;;-3.70;99.90;;;;;;4993159;28;20078;-74
2022/01/13 01:19:37;;;;;;;;;;;-3.80;99.90;;;;;;5010561;28;19925;-74
2022/01/13 01:25:17;;;;;;;;;;;-3.80;99.90;;;;;;5011001;28;19932;-73
2022/01/13 01:27:52;;;;;;;;;;;-3.80;99.90;;;;;;4977703;28;19984;-74
2022/01/13 01:32:59;;;;;;;;;;;-3.80;99.90;;;;;;5009918;28;20457;-73
2022/01/13 01:35:31;;;;;;;;;;;-3.80;99.90;;;;;;4992695;28;19925;-73
2022/01/13 01:38:02;;;;;;;;;;;-3.90;99.90;;;;;;4993527;28;20012;-73
2022/01/13 01:40:29;;;;;;;;;;;-3.90;99.90;;;;;;5010170;28;19971;-74
2022/01/13 01:42:56;;;;;;;;;;;-3.90;99.90;;;;;;5010009;28;19970;-73
2022/01/13 01:45:32;;;;;;;;;;;-3.90;99.90;;;;;;5010164;28;20012;-73
2022/01/13 01:48:04;;;;;;;;;;;-3.90;99.90;;;;;;5010217;28;20023;-73
2022/01/13 01:50:38;;;;;;;;;;;-3.90;99.90;;;;;;5009925;28;19933;-73
2022/01/13 01:53:10;;;;;;;;;;;-3.90;99.90;;;;;;4976937;28;20388;-73
2022/01/13 01:55:43;;;;;;;;;;;-4.00;99.90;;;;;;5010141;28;19973;-73
2022/01/13 01:58:14;;;;;;;;;;;-4.00;99.90;;;;;;4977141;28;19936;-73
2022/01/13 02:00:48;;;;;;;;;;;-4.00;99.90;;;;;;5009504;28;19925;-73
2022/01/13 02:03:28;;;;;;;;;;;-4.00;99.90;;;;;;4992196;28;19925;-73
2022/01/13 02:05:56;;;;;;;;;;;-4.00;99.90;;;;;;5009333;28;19964;-74
2022/01/13 02:08:23;;;;;;;;;;;-4.10;99.90;;;;;;4991915;28;20020;-73
2022/01/13 02:10:54;;;;;;;;;;;-4.00;99.90;;;;;;4991724;28;19951;-73
2022/01/13 02:13:23;;;;;;;;;;;-4.10;99.90;;;;;;4975531;28;20370;-73
2022/01/13 02:16:06;;;;;;;;;;;-4.10;99.90;;;;;;4992448;28;20290;-74
2022/01/13 02:18:39;;;;;;;;;;;-4.00;99.90;;;;;;4977437;28;19925;-73
2022/01/13 02:21:06;;;;;;;;;;;-4.00;99.90;;;;;;5009084;28;20375;-73
2022/01/13 02:23:39;;;;;;;;;;;-4.00;99.90;;;;;;4991103;28;19925;-73
2022/01/13 02:26:10;;;;;;;;;;;-4.10;99.90;;;;;;5009333;28;19925;-73
2022/01/13 02:28:38;;;;;;;;;;;-4.00;99.90;;;;;;4991923;28;19933;-74
2022/01/13 02:31:11;;;;;;;;;;;-4.10;99.90;;;;;;4991797;28;20021;-73
2022/01/13 02:33:43;;;;;;;;;;;-4.00;99.90;;;;;;4990611;28;20003;-73
2022/01/13 02:36:16;;;;;;;;;;;-4.00;99.90;;;;;;5075957;28;20094;-73
2022/01/13 02:38:53;;;;;;;;;;;-4.00;99.90;;;;;;5008680;28;19952;-73
2022/01/13 02:41:24;;;;;;;;;;;-4.00;99.90;;;;;;5008718;28;19990;-73
2022/01/13 02:43:53;;;;;;;;;;;-4.00;99.90;;;;;;4990464;28;19932;-73
2022/01/13 02:46:32;;;;;;;;;;;-4.00;99.90;;;;;;5008079;28;20040;-73
2022/01/13 02:49:05;;;;;;;;;;;-4.00;99.90;;;;;;4992227;28;19925;-73
2022/01/13 02:51:37;;;;;;;;;;;-3.90;99.90;;;;;;5008921;28;20031;-73
2022/01/13 02:54:09;;;;;;;;;;;-4.00;99.90;;;;;;4990868;28;19925;-73
2022/01/13 02:56:36;;;;;;;;;;;-4.00;99.90;;;;;;5008849;28;20368;-73
2022/01/13 02:59:08;;;;;;;;;;;-3.90;99.90;;;;;;4991314;28;19971;-73
2022/01/13 03:01:41;;;;;;;;;;;-3.90;99.90;;;;;;4991452;28;19925;-73
2022/01/13 03:04:08;;;;;;;;;;;-4.00;99.90;;;;;;4991068;28;19956;-73
2022/01/13 03:06:41;;;;;;;;;;;-4.00;99.90;;;;;;5008852;28;20021;-73
2022/01/13 03:09:10;;;;;;;;;;;-3.90;99.90;;;;;;5008819;28;20397;-73
2022/01/13 03:11:43;;;;;;;;;;;-3.90;99.90;;;;;;4991712;28;19926;-73
2022/01/13 03:14:11;;;;;;;;;;;-3.90;99.90;;;;;;5008376;28;19925;-73
2022/01/13 03:16:42;;;;;;;;;;;-3.90;99.90;;;;;;5008914;28;19960;-73
2022/01/13 03:19:09;;;;;;;;;;;-4.10;99.90;;;;;;5008593;28;19925;-73
2022/01/13 03:21:36;;;;;;;;;;;-4.20;99.90;;;;;;5008493;28;19925;-73
2022/01/13 03:24:07;;;;;;;;;;;-4.20;99.90;;;;;;4991084;28;20369;-73
2022/01/13 03:26:39;;;;;;;;;;;-4.20;99.90;;;;;;5008629;28;19926;-73
2022/01/13 03:31:45;;;;;;;;;;;-4.10;99.90;;;;;;5008521;28;20021;-73
2022/01/13 03:34:13;;;;;;;;;;;-4.10;99.90;;;;;;4990587;28;20016;-73
2022/01/13 03:36:45;;;;;;;;;;;-4.10;99.90;;;;;;4990755;28;19929;-73
2022/01/13 03:39:17;;;;;;;;;;;-4.10;99.90;;;;;;4991770;28;20024;-73
2022/01/13 03:41:48;;;;;;;;;;;-4.20;99.90;;;;;;5008404;28;20459;-73
2022/01/13 03:44:29;;;;;;;;;;;-4.20;99.90;;;;;;5008701;28;19925;-73
2022/01/13 03:47:02;;;;;;;;;;;-4.20;99.90;;;;;;4994256;28;20012;-73
2022/01/13 03:49:29;;;;;;;;;;;-4.30;99.90;;;;;;5011581;28;19970;-73
2022/01/13 03:52:04;;;;;;;;;;;-4.30;99.90;;;;;;4994175;28;19925;-73
2022/01/13 03:54:33;;;;;;;;;;;-4.40;99.90;;;;;;4993918;28;19932;-73
2022/01/13 03:57:19;;;;;;;;;;;-4.40;99.90;;;;;;4994150;28;20026;-73
2022/01/13 03:59:57;;;;;;;;;;;-4.40;99.90;;;;;;5011563;28;19952;-73
2022/01/13 04:02:39;;;;;;;;;;;-4.40;99.90;;;;;;4996040;28;19957;-73
2022/01/13 04:05:06;;;;;;;;;;;-4.40;99.90;;;;;;4994088;28;19973;-73
2022/01/13 04:07:37;;;;;;;;;;;-4.40;99.90;;;;;;5011570;28;19929;-73
2022/01/13 04:10:35;;;;;;;;;;;-4.30;99.90;;;;;;4993801;28;20020;-73
2022/01/13 04:13:21;;;;;;;;;;;-4.30;99.90;;;;;;5017895;28;19932;-73
2022/01/13 04:15:48;;;;;;;;;;;-4.20;99.90;;;;;;4994204;28;19925;-73
2022/01/13 04:18:15;;;;;;;;;;;-4.20;99.90;;;;;;4977586;28;20020;-73
2022/01/13 04:20:46;;;;;;;;;;;-4.20;99.90;;;;;;4993349;28;19926;-73
2022/01/13 04:23:18;;;;;;;;;;;-4.10;99.90;;;;;;4993564;28;20379;-73
2022/01/13 04:25:45;;;;;;;;;;;-4.10;99.90;;;;;;5011470;28;19925;-73
2022/01/13 04:28:17;;;;;;;;;;;-4.20;99.90;;;;;;4993755;28;20032;-73
2022/01/13 04:30:50;;;;;;;;;;;-4.20;99.90;;;;;;4993630;28;20403;-73
2022/01/13 04:33:22;;;;;;;;;;;-4.30;99.90;;;;;;4994016;28;20048;-73
2022/01/13 04:35:48;;;;;;;;;;;-4.30;99.90;;;;;;5011322;28;20020;-73
2022/01/13 04:38:20;;;;;;;;;;;-4.30;99.90;;;;;;4978132;28;19925;-73
2022/01/13 04:40:54;;;;;;;;;;;-4.30;99.90;;;;;;4994064;28;20461;-73
2022/01/13 04:43:21;;;;;;;;;;;-4.30;99.90;;;;;;5010892;28;20020;-73
2022/01/13 04:45:53;;;;;;;;;;;-4.30;99.90;;;;;;4994794;28;19925;-73
2022/01/13 04:48:25;;;;;;;;;;;-4.20;99.90;;;;;;4993370;28;19929;-73
2022/01/13 04:50:52;;;;;;;;;;;-4.20;99.90;;;;;;5010513;28;20012;-73
2022/01/13 04:53:18;;;;;;;;;;;-4.10;99.90;;;;;;5010593;28;19961;-73
2022/01/13 04:55:56;;;;;;;;;;;-4.00;99.90;;;;;;4992362;28;19977;-73
2022/01/13 04:58:23;;;;;;;;;;;-4.00;99.90;;;;;;4992769;28;19925;-73
2022/01/13 05:00:50;;;;;;;;;;;-4.00;99.90;;;;;;4993170;28;20046;-76
2022/01/13 05:03:21;;;;;;;;;;;-4.00;99.90;;;;;;4965407;28;19940;-73
2022/01/13 05:05:53;;;;;;;;;;;-3.90;99.90;;;;;;4973635;28;19926;-73
2022/01/13 05:08:20;;;;;;;;;;;-3.90;99.90;;;;;;5042050;28;19932;-74
2022/01/13 05:10:52;;;;;;;;;;;-3.90;99.90;;;;;;5014055;28;20055;-80
2022/01/13 05:13:23;;;;;;;;;;;-3.90;99.90;;;;;;4997075;28;20031;-74
2022/01/13 05:15:50;;;;;;;;;;;-3.90;99.90;;;;;;4998319;28;19972;-73
2022/01/13 05:21:21;;;;;;;;;;;-3.80;99.90;;;;;;4990617;28;20024;-72
2022/01/13 05:23:53;;;;;;;;;;;-3.80;99.90;;;;;;4986139;28;19933;-73
2022/01/13 05:26:21;;;;;;;;;;;-3.90;99.90;;;;;;5000359;28;20076;-73
2022/01/13 05:28:52;;;;;;;;;;;-3.90;99.90;;;;;;5016252;28;19976;-73
2022/01/13 05:31:24;;;;;;;;;;;-3.90;99.90;;;;;;4990052;28;19995;-73
2022/01/13 05:33:51;;;;;;;;;;;-3.90;99.90;;;;;;4972733;28;19926;-72
2022/01/13 05:36:18;;;;;;;;;;;-3.90;99.90;;;;;;4991018;28;19926;-73
2022/01/13 05:38:50;;;;;;;;;;;-3.90;99.90;;;;;;4958037;28;20016;-73
2022/01/13 05:41:22;;;;;;;;;;;-3.90;99.90;;;;;;5006748;28;19924;-73
2022/01/13 05:43:53;;;;;;;;;;;-3.80;99.90;;;;;;5031555;28;19956;-73
2022/01/13 05:46:25;;;;;;;;;;;-3.80;99.90;;;;;;5049663;28;19924;-73
2022/01/13 05:48:57;;;;;;;;;;;-3.90;99.90;;;;;;5060047;28;20299;-73
2022/01/13 05:51:29;;;;;;;;;;;-3.80;99.90;;;;;;5024831;28;19966;-74
2022/01/13 05:54:00;;;;;;;;;;;-3.70;99.90;;;;;;5023698;28;20276;-73
2022/01/13 05:56:32;;;;;;;;;;;-3.60;99.90;;;;;;5026791;28;19931;-72
2022/01/13 05:59:04;;;;;;;;;;;-3.50;99.90;;;;;;5047238;28;20020;-73
2022/01/13 06:01:35;;;;;;;;;;;-3.60;99.90;;;;;;5057590;28;19947;-73
2022/01/13 06:04:07;;;;;;;;;;;-3.60;99.90;;;;;;5023902;28;19928;-73
2022/01/13 06:06:34;;;;;;;;;;;-3.60;99.90;;;;;;5010844;28;20400;-73
2022/01/13 06:09:05;;;;;;;;;;;-3.70;99.90;;;;;;5057247;28;19999;-72
2022/01/13 06:11:40;;;;;;;;;;;-3.70;99.90;;;;;;4960798;28;20314;-73
2022/01/13 06:14:11;;;;;;;;;;;-3.70;99.90;;;;;;5009513;28;19932;-73
2022/01/13 06:16:38;;;;;;;;;;;-3.70;99.90;;;;;;4992357;28;19925;-73
2022/01/13 06:19:09;;;;;;;;;;;-3.80;99.90;;;;;;5009795;28;19932;-72
2022/01/13 06:21:41;;;;;;;;;;;-3.90;99.90;;;;;;4992193;28;19926;-72
2022/01/13 06:24:13;;;;;;;;;;;-3.90;99.90;;;;;;5028174;28;20018;-73
2022/01/13 06:26:44;;;;;;;;;;;-3.90;99.90;;;;;;5074588;28;19930;-72
2022/01/13 06:29:16;;;;;;;;;;;-3.90;99.90;;;;;;5092410;28;20005;-73
2022/01/13 06:31:48;;;;;;;;;;;-3.80;99.90;;;;;;5074044;28;19928;-73
2022/01/13 06:34:19;;;;;;;;;;;-3.80;99.90;;;;;;5033319;28;19930;-73
2022/01/13 06:36:51;;;;;;;;;;;-3.70;99.90;;;;;;4990505;28;20303;-72
2022/01/13 06:39:23;;;;;;;;;;;-3.70;99.90;;;;;;4991144;28;19925;-73
2022/01/13 06:41:54;;;;;;;;;;;-3.70;99.90;;;;;;5025760;28;19924;-73
2022/01/13 06:44:26;;;;;;;;;;;-3.60;99.90;;;;;;5009250;28;19969;-73
2022/01/13 06:46:58;;;;;;;;;;;-3.60;99.90;;;;;;5070695;28;20370;-73
2022/01/13 06:49:29;;;;;;;;;;;-3.60;99.90;;;;;;5061521;28;19924;-72
2022/01/13 06:52:02;;;;;;;;;;;-3.60;99.90;;;;;;4968019;28;19955;-72
2022/01/13 06:54:29;;;;;;;;;;;-3.70;99.90;;;;;;5045360;28;20494;-73
2022/01/13 06:57:00;;;;;;;;;;;-3.60;99.90;;;;;;5040385;28;20026;-73
2022/01/13 06:59:27;;;;;;;;;;;-3.60;99.90;;;;;;5021150;28;19986;-73
2022/01/13 07:01:56;;;;;;;;;;;-3.60;99.90;;;;;;4960169;28;19926;-72
2022/01/13 07:04:23;;;;;;;;;;;-3.50;99.90;;;;;;4970304;28;20016;-73
2022/01/13 07:06:55;;;;;;;;;;;-3.50;99.90;;;;;;4994969;28;20012;-73
2022/01/13 07:09:21;;;;;;;;;;;-3.50;99.90;;;;;;4987377;28;19932;-73
2022/01/13 07:11:48;;;;;;;;;;;-3.50;99.90;;;;;;4988227;28;19925;-72
2022/01/13 07:14:15;;;;;;;;;;;-3.50;99.90;;;;;;4956637;28;20024;-72
2022/01/13 07:16:47;;;;;;;;;;;-3.40;99.90;;;;;;5068526;28;19930;-73
2022/01/13 07:19:15;;;;;;;;;;;-3.50;99.90;;;;;;4972069;28;19926;-72
2022/01/13 07:21:42;;;;;;;;;;;-3.40;99.90;;;;;;4980095;28;20021;-73
2022/01/13 07:24:09;;;;;;;;;;;-3.50;99.90;;;;;;4995571;28;19973;-74
2022/01/13 07:26:36;;;;;;;;;;;-3.50;99.90;;;;;;4981352;28;19925;-74
2022/01/13 07:29:04;;;;;;;;;;;-3.50;99.90;;;;;;5042548;28;19930;-73
2022/01/13 07:31:31;;;;;;;;;;;-3.60;99.90;;;;;;5006167;28;19924;-74
2022/01/13 07:33:57;;;;;;;;;;;-3.60;99.90;;;;;;4999701;28;20480;-74
2022/01/13 07:36:29;;;;;;;;;;;-3.60;99.90;;;;;;4989665;28;19925;-72
2022/01/13 07:38:56;;;;;;;;;;;-3.60;99.90;;;;;;4988122;28;19954;-74
2022/01/13 07:41:27;;;;;;;;;;;-3.60;99.90;;;;;;4997806;28;20475;-72
2022/01/13 07:43:54;;;;;;;;;;;-3.50;99.90;;;;;;5032945;28;20020;-74
2022/01/13 07:46:22;;;;;;;;;;;-3.60;99.90;;;;;;4972043;28;19925;-74
2022/01/13 07:48:54;;;;;;;;;;;-3.70;99.90;;;;;;4958294;28;20012;-72
2022/01/13 07:51:20;;;;;;;;;;;-3.70;99.90;;;;;;4999765;28;19984;-74
2022/01/13 07:53:47;;;;;;;;;;;-3.90;99.90;;;;;;4984604;28;19930;-74
2022/01/13 07:56:19;;;;;;;;;;;-3.90;99.90;;;;;;4996103;28;20401;-74
2022/01/13 07:58:46;;;;;;;;;;;-3.90;99.90;;;;;;5016409;28;20008;-74
2022/01/13 08:01:13;;;;;;;;;;;-3.90;99.90;;;;;;4994758;28;19926;-73
2022/01/13 08:03:40;;;;;;;;;;;-3.80;99.90;;;;;;4969502;28;19926;-74
2022/01/13 08:06:06;;;;;;;;;;;-3.70;99.90;;;;;;4994872;28;20032;-74
2022/01/13 08:08:38;;;;;;;;;;;-3.60;99.90;;;;;;4973549;28;20020;-74
2022/01/13 08:11:10;;;;;;;;;;;-3.50;99.90;;;;;;4968873;28;19933;-75
2022/01/13 08:13:42;;;;;;;;;;;-3.50;99.90;;;;;;4983875;28;19933;-73
2022/01/13 08:16:10;;;;;;;;;;;-3.40;99.90;;;;;;4967554;28;19933;-74
2022/01/13 08:21:28;;;;;;;;;;;-3.30;99.90;;;;;;4986726;28;19925;-73
2022/01/13 08:23:59;;;;;;;;;;;-3.30;99.90;;;;;;4987111;28;20385;-74
2022/01/13 08:26:27;;;;;;;;;;;-3.40;99.90;;;;;;4976033;28;19932;-72
2022/01/13 08:28:59;;;;;;;;;;;-3.50;99.90;;;;;;5039250;28;19930;-74
2022/01/13 08:31:30;;;;;;;;;;;-3.40;99.90;;;;;;4997141;28;19924;-73
2022/01/13 08:34:02;;;;;;;;;;;-3.40;99.90;;;;;;5002885;28;19947;-74
2022/01/13 08:36:34;;;;;;;;;;;-3.30;99.90;;;;;;4990891;28;19925;-74
2022/01/13 08:39:02;;;;;;;;;;;-3.30;99.90;;;;;;4990278;28;20512;-74
2022/01/13 08:41:33;;;;;;;;;;;-3.30;99.90;;;;;;4991688;28;19926;-73
2022/01/13 08:44:05;;;;;;;;;;;-3.30;99.90;;;;;;4982445;28;19937;-74
2022/01/13 08:46:32;;;;;;;;;;;-3.30;99.90;;;;;;4971534;28;19932;-73
2022/01/13 08:49:03;;;;;;;;;;;-3.30;99.90;;;;;;4974530;28;19926;-73
2022/01/13 08:51:35;;;;;;;;;;;-3.20;99.90;;;;;;4977429;28;19926;-74
2022/01/13 08:54:07;;;;;;;;;;;-3.10;99.90;;;;;;5004403;28;19930;-74
2022/01/13 08:56:39;;;;;;;;;;;-3.00;99.90;;;;;;5059861;28;19931;-74
2022/01/13 08:59:10;;;;;;;;;;;-2.90;99.90;;;;;;4991709;28;20423;-73
2022/01/13 09:01:37;;;;;;;;;;;-2.80;99.90;;;;;;4988858;28;20400;-74
2022/01/13 09:04:08;;;;;;;;;;;-2.80;99.90;;;;;;4980204;28;19935;-72
2022/01/13 09:06:40;;;;;;;;;;;-2.80;99.90;;;;;;4997565;28;19932;-74
2022/01/13 09:09:14;;;;;;;;;;;-2.80;99.90;;;;;;5057859;28;19932;-74
2022/01/13 09:11:41;;;;;;;;;;;-2.90;99.90;;;;;;4999197;28;19924;-74
2022/01/13 09:14:08;;;;;;;;;;;-2.80;99.90;;;;;;4981371;28;19973;-74
2022/01/13 09:16:42;;;;;;;;;;;-2.70;99.90;;;;;;5016781;28;19958;-74
2022/01/13 09:19:12;;;;;;;;;;;-2.70;99.90;;;;;;5008698;28;19926;-73
2022/01/13 09:21:44;;;;;;;;;;;-2.70;99.90;;;;;;5037537;28;19929;-73
2022/01/13 09:24:18;;;;;;;;;;;-2.60;99.90;;;;;;5058349;28;19936;-73
2022/01/13 09:26:49;;;;;;;;;;;-2.60;99.90;;;;;;5023733;28;19926;-74
2022/01/13 09:29:21;;;;;;;;;;;-2.60;99.90;;;;;;4958542;28;20610;-73
2022/01/13 09:31:53;;;;;;;;;;;-2.60;99.90;;;;;;5001540;28;19948;-74
2022/01/13 09:34:19;;;;;;;;;;;-2.50;99.90;;;;;;4986350;28;20281;-74
2022/01/13 09:36:51;;;;;;;;;;;-2.50;99.90;;;;;;5092753;28;19931;-73
2022/01/13 09:39:18;;;;;;;;;;;-2.50;99.90;;;;;;5093083;28;20370;-74
2022/01/13 09:41:45;;;;;;;;;;;-2.40;99.90;;;;;;5010187;28;20025;-74
2022/01/13 09:44:15;;;;;;;;;;;-2.40;99.90;;;;;;5009784;28;20020;-74
2022/01/13 09:46:42;;;;;;;;;;;-2.40;99.90;;;;;;4992921;28;19932;-74
2022/01/13 09:49:14;;;;;;;;;;;-2.30;99.90;;;;;;4998443;28;19926;-74
2022/01/13 09:51:45;;;;;;;;;;;-2.40;99.90;;;;;;4972881;28;19957;-73
2022/01/13 09:54:17;;;;;;;;;;;-2.30;99.90;;;;;;5033909;28;20028;-74
2022/01/13 09:56:44;;;;;;;;;;;-2.30;99.90;;;;;;5059917;28;20015;-73
2022/01/13 09:59:16;;;;;;;;;;;-2.20;99.90;;;;;;5031448;28;19960;-74
2022/01/13 10:01:47;;;;;;;;;;;-2.10;99.90;;;;;;4982944;28;19929;-74
2022/01/13 10:04:19;;;;;;;;;;;-2.00;99.90;;;;;;5043311;28;19926;-74
2022/01/13 10:06:51;;;;;;;;;;;-2.00;99.90;;;;;;5004654;28;19936;-74
2022/01/13 10:09:22;;;;;;;;;;;-1.90;99.90;;;;;;4972787;28;19926;-73
2022/01/13 10:11:57;;;;;;;;;;;-1.90;99.90;;;;;;4971946;28;19930;-73
2022/01/13 10:17:03;;;;;;;;;;;-1.90;99.90;;;;;;4973545;28;19926;-72
2022/01/13 10:19:36;;;;;;;;;;;-1.90;99.90;;;;;;4990931;28;19926;-74
2022/01/13 10:22:08;;;;;;;;;;;-1.90;99.90;;;;;;5053995;28;19952;-72
2022/01/13 10:24:36;;;;;;;;;;;-1.80;99.90;;;;;;4991136;28;20501;-74
2022/01/13 10:27:03;;;;;;;;;;;-1.80;99.90;;;;;;4994819;28;20021;-74
2022/01/13 10:29:35;;;;;;;;;;;-1.70;99.90;;;;;;4993908;28;19943;-74
2022/01/13 10:32:02;;;;;;;;;;;-1.70;99.90;;;;;;4983795;28;19926;-73
2022/01/13 10:34:35;;;;;;;;;;;-1.70;99.90;;;;;;5001785;28;20020;-74
2022/01/13 10:37:07;;;;;;;;;;;-1.70;99.90;;;;;;4989537;28;20427;-73
2022/01/13 10:39:45;;;;;;;;;;;-1.60;99.90;;;;;;4973045;28;20304;-73
2022/01/13 10:42:20;;;;;;;;;;;-1.60;99.90;;;;;;4968120;28;19934;-74
2022/01/13 10:44:54;;;;;;;;;;;-1.60;99.90;;;;;;4937991;28;19926;-76
2022/01/13 10:47:21;;;;;;;;;;;-1.50;99.90;;;;;;4944658;28;19948;-72
2022/01/13 10:49:52;;;;;;;;;;;-1.50;99.90;;;;;;4959182;28;19933;-74
2022/01/13 10:52:26;;;;;;;;;;;-1.50;99.90;;;;;;4952373;28;20026;-73
2022/01/13 10:54:54;;;;;;;;;;;-1.50;99.90;;;;;;4967895;28;20004;-74
2022/01/13 10:57:22;;;;;;;;;;;-1.50;99.90;;;;;;4996122;28;19926;-74
2022/01/13 10:59:54;;;;;;;;;;;-1.50;99.90;;;;;;4982005;28;19933;-74
2022/01/13 11:02:22;;;;;;;;;;;-1.50;99.90;;;;;;5011910;28;19932;-71
2022/01/13 11:04:53;;;;;;;;;;;-1.40;99.90;;;;;;5009305;28;19925;-74
2022/01/13 11:07:27;;;;;;;;;;;-1.40;99.90;;;;;;4971570;28;19936;-74
2022/01/13 11:10:00;;;;;;;;;;;-1.30;99.90;;;;;;5036287;28;19948;-74
2022/01/13 11:12:36;;;;;;;;;;;-1.30;99.90;;;;;;5043815;28;19950;-72
2022/01/13 11:15:12;;;;;;;;;;;-1.20;99.90;;;;;;5011653;28;19926;-74
2022/01/13 11:17:40;;;;;;;;;;;-1.10;99.90;;;;;;5091382;28;20022;-72
2022/01/13 11:20:14;;;;;;;;;;;-1.00;99.90;;;;;;5057942;28;19931;-75
2022/01/13 11:22:41;;;;;;;;;;;-0.90;99.90;;;;;;5091519;28;20019;-74
2022/01/13 11:25:15;;;;;;;;;;;-0.90;99.90;;;;;;5074012;28;19924;-73
2022/01/13 11:27:41;;;;;;;;;;;-0.80;99.90;;;;;;5091877;28;19930;-73
2022/01/13 11:30:15;;;;;;;;;;;-0.80;99.90;;;;;;5074607;28;20602;-73
2022/01/13 11:32:43;;;;;;;;;;;-0.70;99.90;;;;;;5063130;28;20338;-72
2022/01/13 11:35:10;;;;;;;;;;;-0.60;99.90;;;;;;5000158;28;19926;-72
2022/01/13 11:37:39;;;;;;;;;;;-0.50;99.90;;;;;;4987537;28;19948;-75
2022/01/13 11:40:26;;;;;;;;;;;-0.50;99.90;;;;;;4981302;28;19933;-74
2022/01/13 11:42:58;;;;;;;;;;;-0.50;99.90;;;;;;4987250;28;20039;-74
2022/01/13 11:45:35;;;;;;;;;;;-0.40;99.90;;;;;;5008740;28;19926;-74
2022/01/13 11:48:12;;;;;;;;;;;-0.40;99.90;;;;;;4991482;28;19925;-74
2022/01/13 11:50:51;;;;;;;;;;;-0.40;99.90;;;;;;4974289;28;19926;-74
2022/01/13 11:53:24;;;;;;;;;;;-0.30;99.90;;;;;;5007246;28;19925;-72
2022/01/13 11:55:53;;;;;;;;;;;-0.30;99.90;;;;;;4991246;28;20350;-74
2022/01/13 11:58:26;;;;;;;;;;;-0.20;99.90;;;;;;4976977;28;19933;-74
2022/01/13 12:01:27;;;;;;;;;;;-0.20;99.90;;;;;;4974718;28;19936;-74
2022/01/13 12:04:01;;;;;;;;;;;-0.30;99.90;;;;;;5064272;28;19928;-74
2022/01/13 12:06:35;;;;;;;;;;;-0.30;99.90;;;;;;5052573;28;19932;-74
2022/01/13 12:09:08;;;;;;;;;;;-0.40;99.90;;;;;;4992243;28;19926;-74
2022/01/13 12:11:39;;;;;;;;;;;-0.30;99.90;;;;;;4991665;28;20299;-74
2022/01/13 12:17:03;;;;;;;;;;;-0.30;99.90;;;;;;5008851;28;19937;-74
2022/01/13 12:19:47;;;;;;;;;;;-0.30;99.90;;;;;;4982104;28;20274;-74
2022/01/13 12:22:40;;;;;;;;;;;-0.30;99.90;;;;;;5041594;28;19930;-74
2022/01/13 12:25:13;;;;;;;;;;;-0.40;99.90;;;;;;4981464;28;19933;-74
2022/01/13 12:27:40;;;;;;;;;;;-0.50;99.90;;;;;;5003633;28;19933;-74
2022/01/13 12:30:18;;;;;;;;;;;-0.60;99.90;;;;;;4973685;28;19975;-74
2022/01/13 12:32:50;;;;;;;;;;;-0.70;99.90;;;;;;4993222;28;19932;-73
2022/01/13 12:35:37;;;;;;;;;;;-0.70;99.90;;;;;;4988207;28;20021;-74
2022/01/13 12:38:06;;;;;;;;;;;-0.80;99.90;;;;;;4961833;28;20376;-74
2022/01/13 12:40:44;;;;;;;;;;;-0.80;99.90;;;;;;5000595;28;19938;-74
2022/01/13 12:45:27;;;;;;;;;;;-0.80;99.90;;;;;;4993451;28;20296;-74
2022/01/13 12:46:12;;;;;;;;;;;-0.80;99.90;;;;;;5070238;28;20013;-73
2022/01/13 12:48:40;;;;;;;;;;;-0.70;99.90;;;;;;5007451;28;20392;-74
2022/01/13 12:51:11;;;;;;;;;;;-0.60;99.90;;;;;;5011441;28;19934;-74
2022/01/13 12:53:38;;;;;;;;;;;-0.50;99.90;;;;;;5017942;28;19924;-73
2022/01/13 12:56:17;;;;;;;;;;;-0.50;99.90;;;;;;5018234;28;19933;-74
2022/01/13 12:58:56;;;;;;;;;;;-0.50;99.90;;;;;;4980115;28;20308;-71
2022/01/13 13:01:32;;;;;;;;;;;-0.50;99.90;;;;;;4989332;28;19926;-74
2022/01/13 13:04:04;;;;;;;;;;;-0.40;99.90;;;;;;4979089;28;19926;-74
2022/01/13 13:06:37;;;;;;;;;;;-0.30;99.90;;;;;;4988311;28;19932;-72
2022/01/13 13:09:11;;;;;;;;;;;-0.20;99.90;;;;;;5005015;28;19932;-73
2022/01/13 13:11:44;;;;;;;;;;;-0.20;99.90;;;;;;4996274;28;19932;-73
2022/01/13 13:14:23;;;;;;;;;;;-0.10;99.90;;;;;;5003819;28;19934;-74
2022/01/13 13:16:50;;;;;;;;;;;0.00;99.90;;;;;;4972866;28;19944;-74
2022/01/13 13:19:22;;;;;;;;;;;0.10;99.90;;;;;;4957471;28;19925;-72
2022/01/13 13:21:52;;;;;;;;;;;0.30;99.90;;;;;;4990675;28;20387;-74
2022/01/13 13:24:24;;;;;;;;;;;0.40;99.90;;;;;;5004762;28;19936;-74
2022/01/13 13:26:51;;;;;;;;;;;0.60;99.90;;;;;;4973185;28;19961;-74
2022/01/13 13:29:24;;;;;;;;;;;0.60;99.90;;;;;;4986236;28;19932;-72
2022/01/13 13:31:56;;;;;;;;;;;0.60;99.90;;;;;;4985717;28;19926;-74
2022/01/13 13:34:29;;;;;;;;;;;0.60;99.90;;;;;;4983073;28;20396;-74
2022/01/13 13:37:01;;;;;;;;;;;0.60;99.90;;;;;;5053542;28;19926;-75
2022/01/13 13:39:32;;;;;;;;;;;0.80;99.90;;;;;;4990078;28;19926;-75
2022/01/13 13:42:03;;;;;;;;;;;0.80;99.90;;;;;;5057129;28;19930;-75
2022/01/13 13:44:31;;;;;;;;;;;0.90;99.90;;;;;;5055534;28;19936;-74
2022/01/13 13:47:05;;;;;;;;;;;1.00;99.90;;;;;;5037429;28;19925;-74
2022/01/13 13:49:38;;;;;;;;;;;1.20;99.90;;;;;;4978771;28;19932;-75
2022/01/13 13:52:11;;;;;;;;;;;1.20;99.90;;;;;;4974433;28;19930;-75
2022/01/13 13:54:44;;;;;;;;;;;1.20;99.90;;;;;;4989502;28;19933;-73
2022/01/13 13:57:17;;;;;;;;;;;1.30;99.90;;;;;;4970129;28;19961;-74
2022/01/13 13:59:52;;;;;;;;;;;1.50;99.90;;;;;;4974930;28;19930;-74
2022/01/13 14:02:30;;;;;;;;;;;1.70;99.90;;;;;;5027448;28;19926;-73
2022/01/13 14:05:09;;;;;;;;;;;1.70;99.90;;;;;;5065767;28;19925;-75
2022/01/13 14:07:47;;;;;;;;;;;1.50;99.90;;;;;;5057296;28;19926;-74
2022/01/13 14:10:22;;;;;;;;;;;1.40;99.90;;;;;;4982534;28;19930;-74
2022/01/13 14:12:52;;;;;;;;;;;1.30;99.90;;;;;;5055526;28;20012;-75
2022/01/13 14:15:24;;;;;;;;;;;1.30;99.90;;;;;;5068589;28;19925;-74
2022/01/13 14:18:16;;;;;;;;;;;1.20;99.90;;;;;;4975104;28;19926;-75
2022/01/13 14:20:44;;;;;;;;;;;1.20;99.90;;;;;;4991454;28;20012;-74
2022/01/13 14:23:15;;;;;;;;;;;1.20;99.90;;;;;;4992522;28;20016;-74
2022/01/13 14:25:48;;;;;;;;;;;1.10;99.90;;;;;;4964915;28;19926;-75
2022/01/13 14:28:25;;;;;;;;;;;1.10;99.90;;;;;;4972049;28;19932;-74
2022/01/13 14:30:59;;;;;;;;;;;1.10;99.90;;;;;;4990522;28;19926;-74
2022/01/13 14:33:32;;;;;;;;;;;1.10;99.90;;;;;;4988845;28;19925;-74
2022/01/13 14:36:04;;;;;;;;;;;1.00;99.90;;;;;;5006353;28;19926;-75
2022/01/13 14:38:38;;;;;;;;;;;1.00;99.90;;;;;;5008179;28;20389;-74
2022/01/13 14:41:05;;;;;;;;;;;1.00;99.90;;;;;;5009070;28;19932;-75
2022/01/13 14:43:33;;;;;;;;;;;1.00;99.90;;;;;;4991378;28;19932;-75
2022/01/13 14:46:07;;;;;;;;;;;0.90;99.90;;;;;;4976419;28;19926;-75
2022/01/13 14:48:34;;;;;;;;;;;0.90;99.90;;;;;;4991574;28;19925;-74
2022/01/13 14:51:03;;;;;;;;;;;1.00;99.90;;;;;;4991221;28;19925;-75
2022/01/13 14:53:29;;;;;;;;;;;1.20;99.90;;;;;;4974608;28;19931;-75
2022/01/13 14:55:56;;;;;;;;;;;1.20;99.90;;;;;;4991792;28;19932;-74
2022/01/13 14:58:22;;;;;;;;;;;1.20;99.90;;;;;;4990719;28;20574;-75
2022/01/13 15:00:51;;;;;;;;;;;1.20;99.90;;;;;;4975226;28;21241;-75
2022/01/13 15:03:23;;;;;;;;;;;1.20;99.90;;;;;;4991053;28;19926;-73
2022/01/13 15:05:56;;;;;;;;;;;1.30;99.90;;;;;;4991841;28;19929;-74